Richland Springs, South Carolina
Current Conditions -  °F | °C
As of 7:15 PM on Friday 21 Nov 2014 (Local Time) from KEOE Reporting Station
Clear Clear  
Wind Chill: 46°   Ceiling: Unl
Heat Index: 48°   Visibility: 10mi
Dew Point: 28°   Wind: 5mph
Humidity: 46%   Direction: 90°E
Pressure: 30.46"   Gusts: NA
Location:  34.0417°N, 81.7912°W
Report Text: KEOE 220015Z AUTO 09004KT 10SM CLR 09/M02 A3046 RMK AO2
Loading
Personal Weather Stations






























Interactive Weather Map New forecast layout! Learn more

10-Day Weather Forecast

Advertisements
Track Severe Weather on mobile